sensor_id;sensor_type;location;lat;lon;timestamp;P1;durP1;ratioP1;P2;durP2;ratioP2
70683;SDS011;58263;48.146;11.440;2024-01-10T00:00:24;25.97;;;12.17;;
70683;SDS011;58263;48.146;11.440;2024-01-10T00:02:49;27.20;;;12.87;;
70683;SDS011;58263;48.146;11.440;2024-01-10T00:05:14;28.23;;;12.53;;
70683;SDS011;58263;48.146;11.440;2024-01-10T00:07:40;30.93;;;12.20;;
70683;SDS011;58263;48.146;11.440;2024-01-10T00:10:05;24.50;;;12.60;;
70683;SDS011;58263;48.146;11.440;2024-01-10T00:12:31;31.15;;;12.85;;
70683;SDS011;58263;48.146;11.440;2024-01-10T00:15:01;23.17;;;10.68;;
70683;SDS011;58263;48.146;11.440;2024-01-10T00:17:27;26.30;;;11.93;;
70683;SDS011;58263;48.146;11.440;2024-01-10T00:19:52;32.67;;;13.10;;
70683;SDS011;58263;48.146;11.440;2024-01-10T00:22:17;28.47;;;12.20;;
70683;SDS011;58263;48.146;11.440;2024-01-10T00:24:43;27.33;;;11.60;;
70683;SDS011;58263;48.146;11.440;2024-01-10T00:27:08;28.83;;;12.30;;
70683;SDS011;58263;48.146;11.440;2024-01-10T00:29:35;29.10;;;12.25;;
70683;SDS011;58263;48.146;11.440;2024-01-10T00:32:00;25.70;;;11.77;;
70683;SDS011;58263;48.146;11.440;2024-01-10T00:34:25;27.93;;;11.87;;
70683;SDS011;58263;48.146;11.440;2024-01-10T00:36:51;27.60;;;13.10;;
70683;SDS011;58263;48.146;11.440;2024-01-10T00:39:17;31.73;;;12.17;;
70683;SDS011;58263;48.146;11.440;2024-01-10T00:41:42;29.60;;;13.30;;
70683;SDS011;58263;48.146;11.440;2024-01-10T00:44:07;27.40;;;13.00;;
70683;SDS011;58263;48.146;11.440;2024-01-10T00:46:33;28.20;;;12.82;;
70683;SDS011;58263;48.146;11.440;2024-01-10T00:48:58;31.50;;;14.50;;
70683;SDS011;58263;48.146;11.440;2024-01-10T00:51:23;34.00;;;14.67;;
70683;SDS011;58263;48.146;11.440;2024-01-10T00:53:48;36.37;;;13.97;;
70683;SDS011;58263;48.146;11.440;2024-01-10T00:56:14;27.17;;;13.10;;
70683;SDS011;58263;48.146;11.440;2024-01-10T00:58:39;43.83;;;15.90;;
70683;SDS011;58263;48.146;11.440;2024-01-10T01:01:04;27.90;;;11.47;;
70683;SDS011;58263;48.146;11.440;2024-01-10T01:03:30;26.40;;;12.50;;
70683;SDS011;58263;48.146;11.440;2024-01-10T01:05:55;27.53;;;11.10;;
70683;SDS011;58263;48.146;11.440;2024-01-10T01:08:20;30.60;;;14.10;;
70683;SDS011;58263;48.146;11.440;2024-01-10T01:10:45;33.87;;;12.60;;
70683;SDS011;58263;48.146;11.440;2024-01-10T01:13:11;33.80;;;11.63;;
70683;SDS011;58263;48.146;11.440;2024-01-10T01:15:36;27.43;;;12.00;;
70683;SDS011;58263;48.146;11.440;2024-01-10T01:18:01;27.47;;;12.07;;
70683;SDS011;58263;48.146;11.440;2024-01-10T01:20:26;30.23;;;12.60;;
70683;SDS011;58263;48.146;11.440;2024-01-10T01:22:52;27.57;;;11.83;;
70683;SDS011;58263;48.146;11.440;2024-01-10T01:25:18;32.35;;;12.20;;
70683;SDS011;58263;48.146;11.440;2024-01-10T01:27:43;32.05;;;11.55;;
70683;SDS011;58263;48.146;11.440;2024-01-10T01:30:08;26.17;;;11.57;;
70683;SDS011;58263;48.146;11.440;2024-01-10T01:32:36;28.40;;;11.68;;
70683;SDS011;58263;48.146;11.440;2024-01-10T01:35:01;23.53;;;10.00;;
70683;SDS011;58263;48.146;11.440;2024-01-10T01:37:27;24.40;;;10.23;;
70683;SDS011;58263;48.146;11.440;2024-01-10T01:39:52;26.33;;;10.57;;
70683;SDS011;58263;48.146;11.440;2024-01-10T01:42:18;23.00;;;10.07;;
70683;SDS011;58263;48.146;11.440;2024-01-10T01:44:43;27.20;;;11.80;;
70683;SDS011;58263;48.146;11.440;2024-01-10T01:47:08;29.33;;;10.67;;
70683;SDS011;58263;48.146;11.440;2024-01-10T01:49:33;25.50;;;11.17;;
70683;SDS011;58263;48.146;11.440;2024-01-10T01:51:59;23.93;;;10.70;;
70683;SDS011;58263;48.146;11.440;2024-01-10T01:54:25;27.67;;;11.63;;
70683;SDS011;58263;48.146;11.440;2024-01-10T01:56:51;26.35;;;12.35;;
70683;SDS011;58263;48.146;11.440;2024-01-10T01:59:17;27.90;;;11.10;;
70683;SDS011;58263;48.146;11.440;2024-01-10T02:01:42;23.40;;;10.52;;
70683;SDS011;58263;48.146;11.440;2024-01-10T02:04:08;23.75;;;11.27;;
70683;SDS011;58263;48.146;11.440;2024-01-10T02:06:33;24.73;;;9.03;;
70683;SDS011;58263;48.146;11.440;2024-01-10T02:08:59;26.25;;;10.55;;
70683;SDS011;58263;48.146;11.440;2024-01-10T02:11:25;27.35;;;9.93;;
70683;SDS011;58263;48.146;11.440;2024-01-10T02:13:50;28.10;;;10.85;;
70683;SDS011;58263;48.146;11.440;2024-01-10T02:16:16;28.02;;;10.40;;
70683;SDS011;58263;48.146;11.440;2024-01-10T02:18:42;25.65;;;10.13;;
70683;SDS011;58263;48.146;11.440;2024-01-10T02:21:08;25.13;;;10.40;;
70683;SDS011;58263;48.146;11.440;2024-01-10T02:23:33;26.80;;;10.23;;
70683;SDS011;58263;48.146;11.440;2024-01-10T02:25:58;22.77;;;10.40;;
70683;SDS011;58263;48.146;11.440;2024-01-10T02:28:23;25.50;;;10.33;;
70683;SDS011;58263;48.146;11.440;2024-01-10T02:34:12;22.33;;;10.75;;
70683;SDS011;58263;48.146;11.440;2024-01-10T02:36:37;25.43;;;9.83;;
70683;SDS011;58263;48.146;11.440;2024-01-10T02:39:02;22.13;;;9.40;;
70683;SDS011;58263;48.146;11.440;2024-01-10T02:41:27;24.57;;;10.73;;
70683;SDS011;58263;48.146;11.440;2024-01-10T02:43:53;26.63;;;10.77;;
70683;SDS011;58263;48.146;11.440;2024-01-10T02:46:19;24.98;;;10.32;;
70683;SDS011;58263;48.146;11.440;2024-01-10T02:48:47;26.23;;;11.35;;
70683;SDS011;58263;48.146;11.440;2024-01-10T02:51:12;30.40;;;13.00;;
70683;SDS011;58263;48.146;11.440;2024-01-10T02:53:37;37.83;;;12.20;;
70683;SDS011;58263;48.146;11.440;2024-01-10T02:56:03;28.50;;;11.40;;
70683;SDS011;58263;48.146;11.440;2024-01-10T02:58:28;30.25;;;11.07;;
70683;SDS011;58263;48.146;11.440;2024-01-10T03:00:54;24.40;;;10.43;;
70683;SDS011;58263;48.146;11.440;2024-01-10T03:03:20;24.37;;;10.57;;
70683;SDS011;58263;48.146;11.440;2024-01-10T03:05:45;21.17;;;10.07;;
70683;SDS011;58263;48.146;11.440;2024-01-10T03:08:10;25.27;;;11.40;;
70683;SDS011;58263;48.146;11.440;2024-01-10T03:10:35;27.17;;;11.60;;
70683;SDS011;58263;48.146;11.440;2024-01-10T03:13:01;29.30;;;11.40;;
70683;SDS011;58263;48.146;11.440;2024-01-10T03:15:26;26.53;;;10.33;;
70683;SDS011;58263;48.146;11.440;2024-01-10T03:17:51;28.47;;;10.67;;
70683;SDS011;58263;48.146;11.440;2024-01-10T03:20:16;31.97;;;12.17;;
70683;SDS011;58263;48.146;11.440;2024-01-10T03:22:42;27.97;;;10.60;;
70683;SDS011;58263;48.146;11.440;2024-01-10T03:25:07;32.13;;;12.47;;
70683;SDS011;58263;48.146;11.440;2024-01-10T03:27:32;30.17;;;10.55;;
70683;SDS011;58263;48.146;11.440;2024-01-10T03:29:57;29.23;;;12.07;;
70683;SDS011;58263;48.146;11.440;2024-01-10T03:32:23;30.80;;;11.35;;
70683;SDS011;58263;48.146;11.440;2024-01-10T03:34:48;25.93;;;10.87;;
70683;SDS011;58263;48.146;11.440;2024-01-10T03:37:16;33.25;;;11.45;;
70683;SDS011;58263;48.146;11.440;2024-01-10T03:39:41;30.47;;;11.13;;
70683;SDS011;58263;48.146;11.440;2024-01-10T03:42:06;35.87;;;12.97;;
70683;SDS011;58263;48.146;11.440;2024-01-10T03:44:32;30.93;;;11.63;;
70683;SDS011;58263;48.146;11.440;2024-01-10T03:46:57;38.33;;;13.48;;
70683;SDS011;58263;48.146;11.440;2024-01-10T03:49:22;29.93;;;12.03;;
70683;SDS011;58263;48.146;11.440;2024-01-10T03:51:48;29.57;;;12.17;;
70683;SDS011;58263;48.146;11.440;2024-01-10T03:54:13;25.90;;;10.23;;
70683;SDS011;58263;48.146;11.440;2024-01-10T03:56:38;39.07;;;12.47;;
70683;SDS011;58263;48.146;11.440;2024-01-10T03:59:03;31.23;;;13.37;;
70683;SDS011;58263;48.146;11.440;2024-01-10T04:01:28;28.43;;;11.73;;
70683;SDS011;58263;48.146;11.440;2024-01-10T04:03:54;34.37;;;12.23;;
70683;SDS011;58263;48.146;11.440;2024-01-10T04:06:19;31.33;;;11.97;;
70683;SDS011;58263;48.146;11.440;2024-01-10T04:08:44;38.23;;;13.53;;
70683;SDS011;58263;48.146;11.440;2024-01-10T04:11:10;36.07;;;12.33;;
70683;SDS011;58263;48.146;11.440;2024-01-10T04:13:35;32.00;;;12.73;;
70683;SDS011;58263;48.146;11.440;2024-01-10T04:16:00;30.42;;;12.00;;
70683;SDS011;58263;48.146;11.440;2024-01-10T04:18:25;30.57;;;13.20;;
70683;SDS011;58263;48.146;11.440;2024-01-10T04:20:51;30.67;;;11.73;;
70683;SDS011;58263;48.146;11.440;2024-01-10T04:23:16;27.33;;;11.30;;
70683;SDS011;58263;48.146;11.440;2024-01-10T04:25:41;32.03;;;10.47;;
70683;SDS011;58263;48.146;11.440;2024-01-10T04:28:07;28.80;;;11.67;;
70683;SDS011;58263;48.146;11.440;2024-01-10T04:30:32;29.63;;;11.70;;
70683;SDS011;58263;48.146;11.440;2024-01-10T04:32:57;31.63;;;11.80;;
70683;SDS011;58263;48.146;11.440;2024-01-10T04:35:22;27.83;;;11.17;;
70683;SDS011;58263;48.146;11.440;2024-01-10T04:37:48;30.17;;;12.60;;
70683;SDS011;58263;48.146;11.440;2024-01-10T04:40:13;28.77;;;12.57;;
70683;SDS011;58263;48.146;11.440;2024-01-10T04:42:38;33.25;;;13.07;;
70683;SDS011;58263;48.146;11.440;2024-01-10T04:45:05;31.95;;;13.18;;
70683;SDS011;58263;48.146;11.440;2024-01-10T04:47:32;29.77;;;11.68;;
70683;SDS011;58263;48.146;11.440;2024-01-10T04:49:57;36.63;;;12.33;;
70683;SDS011;58263;48.146;11.440;2024-01-10T04:52:22;29.57;;;10.73;;
70683;SDS011;58263;48.146;11.440;2024-01-10T04:54:48;29.10;;;12.57;;
70683;SDS011;58263;48.146;11.440;2024-01-10T04:57:13;29.10;;;12.33;;
70683;SDS011;58263;48.146;11.440;2024-01-10T04:59:38;30.27;;;12.60;;
70683;SDS011;58263;48.146;11.440;2024-01-10T05:02:03;33.43;;;13.07;;
70683;SDS011;58263;48.146;11.440;2024-01-10T05:04:29;31.60;;;12.40;;
70683;SDS011;58263;48.146;11.440;2024-01-10T05:06:54;29.50;;;12.10;;
70683;SDS011;58263;48.146;11.440;2024-01-10T05:09:19;26.47;;;11.70;;
70683;SDS011;58263;48.146;11.440;2024-01-10T05:11:44;30.60;;;12.30;;
70683;SDS011;58263;48.146;11.440;2024-01-10T05:14:13;31.83;;;11.80;;
70683;SDS011;58263;48.146;11.440;2024-01-10T05:16:38;34.70;;;12.77;;
70683;SDS011;58263;48.146;11.440;2024-01-10T05:19:03;28.30;;;12.73;;
70683;SDS011;58263;48.146;11.440;2024-01-10T05:21:30;28.40;;;11.83;;
70683;SDS011;58263;48.146;11.440;2024-01-10T05:23:56;37.33;;;12.13;;
70683;SDS011;58263;48.146;11.440;2024-01-10T05:26:21;24.03;;;11.27;;
70683;SDS011;58263;48.146;11.440;2024-01-10T05:28:46;30.03;;;12.23;;
70683;SDS011;58263;48.146;11.440;2024-01-10T05:31:12;31.87;;;13.20;;
70683;SDS011;58263;48.146;11.440;2024-01-10T05:33:37;30.67;;;12.00;;
70683;SDS011;58263;48.146;11.440;2024-01-10T05:36:02;34.27;;;12.10;;
70683;SDS011;58263;48.146;11.440;2024-01-10T05:38:28;28.20;;;11.90;;
70683;SDS011;58263;48.146;11.440;2024-01-10T05:40:53;25.00;;;12.23;;
70683;SDS011;58263;48.146;11.440;2024-01-10T05:43:18;31.07;;;11.90;;
70683;SDS011;58263;48.146;11.440;2024-01-10T05:45:44;34.10;;;12.30;;
70683;SDS011;58263;48.146;11.440;2024-01-10T05:48:09;28.53;;;10.87;;
70683;SDS011;58263;48.146;11.440;2024-01-10T05:50:34;33.05;;;12.52;;
70683;SDS011;58263;48.146;11.440;2024-01-10T05:52:59;32.47;;;12.57;;
70683;SDS011;58263;48.146;11.440;2024-01-10T05:55:25;31.63;;;13.07;;
70683;SDS011;58263;48.146;11.440;2024-01-10T05:57:50;32.67;;;11.73;;
70683;SDS011;58263;48.146;11.440;2024-01-10T06:00:15;36.20;;;13.13;;
70683;SDS011;58263;48.146;11.440;2024-01-10T06:02:41;38.65;;;12.20;;
70683;SDS011;58263;48.146;11.440;2024-01-10T06:05:08;30.67;;;11.52;;
70683;SDS011;58263;48.146;11.440;2024-01-10T06:07:38;31.30;;;12.18;;
70683;SDS011;58263;48.146;11.440;2024-01-10T06:10:04;32.65;;;12.07;;
70683;SDS011;58263;48.146;11.440;2024-01-10T06:12:30;33.50;;;12.52;;
70683;SDS011;58263;48.146;11.440;2024-01-10T06:14:56;30.48;;;12.15;;
70683;SDS011;58263;48.146;11.440;2024-01-10T06:17:22;36.30;;;12.10;;
70683;SDS011;58263;48.146;11.440;2024-01-10T06:19:47;36.40;;;14.30;;
70683;SDS011;58263;48.146;11.440;2024-01-10T06:22:14;33.10;;;13.07;;
70683;SDS011;58263;48.146;11.440;2024-01-10T06:24:39;38.50;;;13.90;;
70683;SDS011;58263;48.146;11.440;2024-01-10T06:27:06;30.98;;;12.80;;
70683;SDS011;58263;48.146;11.440;2024-01-10T06:29:31;32.28;;;12.27;;
70683;SDS011;58263;48.146;11.440;2024-01-10T06:31:57;31.45;;;12.40;;
70683;SDS011;58263;48.146;11.440;2024-01-10T06:34:23;32.72;;;12.35;;
70683;SDS011;58263;48.146;11.440;2024-01-10T06:36:49;29.38;;;12.18;;
70683;SDS011;58263;48.146;11.440;2024-01-10T06:39:15;29.02;;;12.35;;
70683;SDS011;58263;48.146;11.440;2024-01-10T06:41:41;32.63;;;11.20;;
70683;SDS011;58263;48.146;11.440;2024-01-10T06:44:07;33.13;;;12.80;;
70683;SDS011;58263;48.146;11.440;2024-01-10T06:46:33;33.50;;;13.93;;
70683;SDS011;58263;48.146;11.440;2024-01-10T06:48:58;32.88;;;12.85;;
70683;SDS011;58263;48.146;11.440;2024-01-10T06:51:24;33.07;;;12.57;;
70683;SDS011;58263;48.146;11.440;2024-01-10T06:53:50;34.25;;;12.98;;
70683;SDS011;58263;48.146;11.440;2024-01-10T06:56:15;31.80;;;11.30;;
70683;SDS011;58263;48.146;11.440;2024-01-10T06:58:40;33.37;;;11.77;;
70683;SDS011;58263;48.146;11.440;2024-01-10T07:01:10;28.13;;;12.03;;
70683;SDS011;58263;48.146;11.440;2024-01-10T07:03:38;28.35;;;10.90;;
70683;SDS011;58263;48.146;11.440;2024-01-10T07:06:03;31.02;;;12.02;;
70683;SDS011;58263;48.146;11.440;2024-01-10T07:08:29;27.48;;;12.05;;
70683;SDS011;58263;48.146;11.440;2024-01-10T07:10:55;30.63;;;11.07;;
70683;SDS011;58263;48.146;11.440;2024-01-10T07:13:21;29.27;;;10.65;;
70683;SDS011;58263;48.146;11.440;2024-01-10T07:15:46;27.83;;;11.00;;
70683;SDS011;58263;48.146;11.440;2024-01-10T07:18:11;24.67;;;11.10;;
70683;SDS011;58263;48.146;11.440;2024-01-10T07:20:37;30.10;;;11.43;;
70683;SDS011;58263;48.146;11.440;2024-01-10T07:23:02;28.45;;;11.13;;
70683;SDS011;58263;48.146;11.440;2024-01-10T07:25:28;29.60;;;11.35;;
70683;SDS011;58263;48.146;11.440;2024-01-10T07:27:53;27.70;;;10.97;;
70683;SDS011;58263;48.146;11.440;2024-01-10T07:30:18;27.20;;;10.20;;
70683;SDS011;58263;48.146;11.440;2024-01-10T07:32:44;28.97;;;11.33;;
70683;SDS011;58263;48.146;11.440;2024-01-10T07:35:10;26.05;;;10.48;;
70683;SDS011;58263;48.146;11.440;2024-01-10T07:37:36;29.42;;;11.30;;
70683;SDS011;58263;48.146;11.440;2024-01-10T07:40:03;25.80;;;9.65;;
70683;SDS011;58263;48.146;11.440;2024-01-10T07:42:31;24.88;;;10.88;;
70683;SDS011;58263;48.146;11.440;2024-01-10T07:44:56;32.07;;;10.87;;
70683;SDS011;58263;48.146;11.440;2024-01-10T07:47:22;27.02;;;12.52;;
70683;SDS011;58263;48.146;11.440;2024-01-10T07:49:47;25.40;;;10.57;;
70683;SDS011;58263;48.146;11.440;2024-01-10T07:52:12;25.80;;;11.03;;
70683;SDS011;58263;48.146;11.440;2024-01-10T07:54:37;27.87;;;10.77;;
70683;SDS011;58263;48.146;11.440;2024-01-10T07:57:03;30.37;;;13.37;;
70683;SDS011;58263;48.146;11.440;2024-01-10T07:59:28;27.20;;;10.52;;
70683;SDS011;58263;48.146;11.440;2024-01-10T08:01:56;27.53;;;10.87;;
70683;SDS011;58263;48.146;11.440;2024-01-10T08:04:25;27.33;;;10.43;;
70683;SDS011;58263;48.146;11.440;2024-01-10T08:06:51;32.70;;;11.23;;
70683;SDS011;58263;48.146;11.440;2024-01-10T08:09:17;35.22;;;12.95;;
70683;SDS011;58263;48.146;11.440;2024-01-10T08:11:44;30.20;;;11.13;;
70683;SDS011;58263;48.146;11.440;2024-01-10T08:14:09;28.23;;;11.43;;
70683;SDS011;58263;48.146;11.440;2024-01-10T08:16:35;25.73;;;11.43;;
70683;SDS011;58263;48.146;11.440;2024-01-10T08:19:00;31.77;;;11.27;;
70683;SDS011;58263;48.146;11.440;2024-01-10T08:21:25;33.90;;;12.90;;
70683;SDS011;58263;48.146;11.440;2024-01-10T08:23:50;32.83;;;12.70;;
70683;SDS011;58263;48.146;11.440;2024-01-10T08:26:16;33.47;;;12.87;;
70683;SDS011;58263;48.146;11.440;2024-01-10T08:28:41;29.37;;;12.03;;
70683;SDS011;58263;48.146;11.440;2024-01-10T08:31:07;31.30;;;11.52;;
70683;SDS011;58263;48.146;11.440;2024-01-10T08:33:33;30.15;;;10.82;;
70683;SDS011;58263;48.146;11.440;2024-01-10T08:35:58;31.50;;;11.50;;
70683;SDS011;58263;48.146;11.440;2024-01-10T08:38:23;35.33;;;13.03;;
70683;SDS011;58263;48.146;11.440;2024-01-10T08:40:49;37.57;;;12.73;;
70683;SDS011;58263;48.146;11.440;2024-01-10T08:43:14;31.20;;;12.17;;
70683;SDS011;58263;48.146;11.440;2024-01-10T08:45:39;33.37;;;12.83;;
70683;SDS011;58263;48.146;11.440;2024-01-10T08:48:04;35.60;;;14.37;;
70683;SDS011;58263;48.146;11.440;2024-01-10T08:50:31;32.60;;;12.02;;
70683;SDS011;58263;48.146;11.440;2024-01-10T08:52:57;36.83;;;12.98;;
70683;SDS011;58263;48.146;11.440;2024-01-10T08:55:22;35.50;;;11.63;;
70683;SDS011;58263;48.146;11.440;2024-01-10T08:57:48;34.70;;;14.07;;
70683;SDS011;58263;48.146;11.440;2024-01-10T09:00:16;41.60;;;13.43;;
70683;SDS011;58263;48.146;11.440;2024-01-10T09:02:42;27.92;;;12.77;;
70683;SDS011;58263;48.146;11.440;2024-01-10T09:05:07;34.27;;;11.70;;
70683;SDS011;58263;48.146;11.440;2024-01-10T09:07:35;34.97;;;13.80;;
70683;SDS011;58263;48.146;11.440;2024-01-10T09:10:01;34.70;;;13.57;;
70683;SDS011;58263;48.146;11.440;2024-01-10T09:12:26;37.58;;;13.60;;
70683;SDS011;58263;48.146;11.440;2024-01-10T09:14:51;34.40;;;14.07;;
70683;SDS011;58263;48.146;11.440;2024-01-10T09:17:17;34.90;;;13.30;;
70683;SDS011;58263;48.146;11.440;2024-01-10T09:19:42;40.63;;;15.17;;
70683;SDS011;58263;48.146;11.440;2024-01-10T09:22:07;35.57;;;13.20;;
70683;SDS011;58263;48.146;11.440;2024-01-10T09:24:32;37.10;;;13.40;;
70683;SDS011;58263;48.146;11.440;2024-01-10T09:26:58;36.90;;;15.03;;
70683;SDS011;58263;48.146;11.440;2024-01-10T09:29:24;36.77;;;13.60;;
70683;SDS011;58263;48.146;11.440;2024-01-10T09:31:50;38.45;;;14.57;;
70683;SDS011;58263;48.146;11.440;2024-01-10T09:34:16;31.20;;;13.38;;
70683;SDS011;58263;48.146;11.440;2024-01-10T09:36:41;32.53;;;14.15;;
70683;SDS011;58263;48.146;11.440;2024-01-10T09:39:07;39.13;;;13.70;;
70683;SDS011;58263;48.146;11.440;2024-01-10T09:41:39;36.75;;;14.60;;
70683;SDS011;58263;48.146;11.440;2024-01-10T09:44:10;33.75;;;14.13;;
70683;SDS011;58263;48.146;11.440;2024-01-10T09:46:36;36.17;;;13.50;;
70683;SDS011;58263;48.146;11.440;2024-01-10T09:49:05;32.30;;;13.45;;
70683;SDS011;58263;48.146;11.440;2024-01-10T09:51:30;37.93;;;14.20;;
70683;SDS011;58263;48.146;11.440;2024-01-10T09:53:58;32.78;;;13.30;;
70683;SDS011;58263;48.146;11.440;2024-01-10T09:56:27;35.88;;;14.05;;
70683;SDS011;58263;48.146;11.440;2024-01-10T09:58:53;33.67;;;13.43;;
70683;SDS011;58263;48.146;11.440;2024-01-10T10:01:20;34.75;;;12.27;;
70683;SDS011;58263;48.146;11.440;2024-01-10T10:03:46;35.72;;;14.48;;
70683;SDS011;58263;48.146;11.440;2024-01-10T10:06:13;34.90;;;13.82;;
70683;SDS011;58263;48.146;11.440;2024-01-10T10:08:39;36.77;;;14.20;;
70683;SDS011;58263;48.146;11.440;2024-01-10T10:11:06;34.17;;;13.77;;
70683;SDS011;58263;48.146;11.440;2024-01-10T10:13:31;38.47;;;14.03;;
70683;SDS011;58263;48.146;11.440;2024-01-10T10:16:00;38.60;;;15.35;;
70683;SDS011;58263;48.146;11.440;2024-01-10T10:18:27;41.22;;;14.38;;
70683;SDS011;58263;48.146;11.440;2024-01-10T10:21:06;36.08;;;13.65;;
70683;SDS011;58263;48.146;11.440;2024-01-10T10:23:33;32.40;;;13.35;;
70683;SDS011;58263;48.146;11.440;2024-01-10T10:25:58;39.65;;;15.80;;
70683;SDS011;58263;48.146;11.440;2024-01-10T10:28:28;34.73;;;14.73;;
70683;SDS011;58263;48.146;11.440;2024-01-10T10:30:54;36.28;;;15.05;;
70683;SDS011;58263;48.146;11.440;2024-01-10T10:33:19;38.90;;;14.70;;
70683;SDS011;58263;48.146;11.440;2024-01-10T10:35:46;37.00;;;13.75;;
70683;SDS011;58263;48.146;11.440;2024-01-10T10:38:11;34.03;;;13.73;;
70683;SDS011;58263;48.146;11.440;2024-01-10T10:40:37;38.83;;;15.10;;
70683;SDS011;58263;48.146;11.440;2024-01-10T10:43:02;35.50;;;14.50;;
70683;SDS011;58263;48.146;11.440;2024-01-10T10:45:29;32.50;;;13.02;;
70683;SDS011;58263;48.146;11.440;2024-01-10T10:47:57;34.28;;;14.57;;
70683;SDS011;58263;48.146;11.440;2024-01-10T10:50:24;33.00;;;14.75;;
70683;SDS011;58263;48.146;11.440;2024-01-10T10:52:50;36.85;;;15.82;;
70683;SDS011;58263;48.146;11.440;2024-01-10T10:55:16;34.42;;;15.50;;
70683;SDS011;58263;48.146;11.440;2024-01-10T10:57:45;35.25;;;15.68;;
70683;SDS011;58263;48.146;11.440;2024-01-10T11:00:14;38.63;;;16.48;;
70683;SDS011;58263;48.146;11.440;2024-01-10T11:02:45;39.17;;;16.65;;
70683;SDS011;58263;48.146;11.440;2024-01-10T11:05:11;39.15;;;17.80;;
70683;SDS011;58263;48.146;11.440;2024-01-10T11:07:40;37.85;;;16.73;;
70683;SDS011;58263;48.146;11.440;2024-01-10T11:10:10;38.20;;;16.13;;
70683;SDS011;58263;48.146;11.440;2024-01-10T11:12:47;37.95;;;16.42;;
70683;SDS011;58263;48.146;11.440;2024-01-10T11:24:02;36.08;;;15.90;;
70683;SDS011;58263;48.146;11.440;2024-01-10T11:26:28;35.92;;;16.95;;
70683;SDS011;58263;48.146;11.440;2024-01-10T11:28:53;40.53;;;17.30;;
70683;SDS011;58263;48.146;11.440;2024-01-10T11:31:28;39.77;;;17.37;;
70683;SDS011;58263;48.146;11.440;2024-01-10T11:33:55;39.45;;;16.58;;
70683;SDS011;58263;48.146;11.440;2024-01-10T11:36:21;36.97;;;16.42;;
70683;SDS011;58263;48.146;11.440;2024-01-10T11:49:15;38.03;;;16.23;;
70683;SDS011;58263;48.146;11.440;2024-01-10T11:51:42;39.88;;;16.05;;
70683;SDS011;58263;48.146;11.440;2024-01-10T11:54:08;38.15;;;17.70;;
70683;SDS011;58263;48.146;11.440;2024-01-10T11:56:41;38.67;;;16.48;;
70683;SDS011;58263;48.146;11.440;2024-01-10T11:59:11;38.60;;;16.05;;
70683;SDS011;58263;48.146;11.440;2024-01-10T12:01:41;37.30;;;15.75;;
70683;SDS011;58263;48.146;11.440;2024-01-10T12:04:07;40.25;;;16.95;;
70683;SDS011;58263;48.146;11.440;2024-01-10T12:06:34;38.45;;;17.30;;
70683;SDS011;58263;48.146;11.440;2024-01-10T12:09:03;41.38;;;17.48;;
70683;SDS011;58263;48.146;11.440;2024-01-10T12:11:36;39.20;;;16.70;;
70683;SDS011;58263;48.146;11.440;2024-01-10T12:14:04;36.38;;;16.25;;
70683;SDS011;58263;48.146;11.440;2024-01-10T12:16:29;35.88;;;15.60;;
70683;SDS011;58263;48.146;11.440;2024-01-10T12:18:55;38.30;;;16.73;;
70683;SDS011;58263;48.146;11.440;2024-01-10T12:21:20;39.78;;;16.73;;
70683;SDS011;58263;48.146;11.440;2024-01-10T12:23:46;38.53;;;17.02;;
70683;SDS011;58263;48.146;11.440;2024-01-10T12:26:13;36.22;;;15.20;;
70683;SDS011;58263;48.146;11.440;2024-01-10T12:28:39;40.70;;;16.15;;
70683;SDS011;58263;48.146;11.440;2024-01-10T12:31:04;34.72;;;16.25;;
70683;SDS011;58263;48.146;11.440;2024-01-10T12:33:32;39.55;;;17.30;;
70683;SDS011;58263;48.146;11.440;2024-01-10T12:38:36;33.97;;;16.33;;
70683;SDS011;58263;48.146;11.440;2024-01-10T12:41:03;37.50;;;16.23;;
70683;SDS011;58263;48.146;11.440;2024-01-10T12:43:29;39.67;;;16.38;;
70683;SDS011;58263;48.146;11.440;2024-01-10T12:46:11;37.88;;;15.93;;
70683;SDS011;58263;48.146;11.440;2024-01-10T12:48:40;38.45;;;16.35;;
70683;SDS011;58263;48.146;11.440;2024-01-10T12:51:09;43.72;;;16.23;;
70683;SDS011;58263;48.146;11.440;2024-01-10T12:53:40;36.35;;;15.50;;
70683;SDS011;58263;48.146;11.440;2024-01-10T12:56:07;36.47;;;14.70;;
70683;SDS011;58263;48.146;11.440;2024-01-10T12:58:34;37.05;;;16.38;;
70683;SDS011;58263;48.146;11.440;2024-01-10T13:01:04;33.50;;;16.00;;
70683;SDS011;58263;48.146;11.440;2024-01-10T13:03:29;35.00;;;15.38;;
70683;SDS011;58263;48.146;11.440;2024-01-10T13:05:55;36.33;;;16.33;;
70683;SDS011;58263;48.146;11.440;2024-01-10T13:08:20;37.92;;;16.60;;
70683;SDS011;58263;48.146;11.440;2024-01-10T13:10:46;32.63;;;15.13;;
70683;SDS011;58263;48.146;11.440;2024-01-10T13:13:12;38.05;;;15.95;;
70683;SDS011;58263;48.146;11.440;2024-01-10T13:15:38;40.50;;;15.90;;
70683;SDS011;58263;48.146;11.440;2024-01-10T13:18:04;38.05;;;17.95;;
70683;SDS011;58263;48.146;11.440;2024-01-10T13:20:29;40.05;;;17.02;;
70683;SDS011;58263;48.146;11.440;2024-01-10T13:22:54;41.97;;;17.87;;
70683;SDS011;58263;48.146;11.440;2024-01-10T13:25:20;36.03;;;16.50;;
70683;SDS011;58263;48.146;11.440;2024-01-10T13:27:51;39.47;;;17.20;;
70683;SDS011;58263;48.146;11.440;2024-01-10T13:32:43;40.30;;;16.73;;
70683;SDS011;58263;48.146;11.440;2024-01-10T13:35:08;34.22;;;16.33;;
70683;SDS011;58263;48.146;11.440;2024-01-10T13:37:34;42.23;;;16.77;;
70683;SDS011;58263;48.146;11.440;2024-01-10T13:39:59;37.40;;;17.23;;
70683;SDS011;58263;48.146;11.440;2024-01-10T13:42:24;37.38;;;16.92;;
70683;SDS011;58263;48.146;11.440;2024-01-10T13:44:50;42.45;;;17.90;;
70683;SDS011;58263;48.146;11.440;2024-01-10T13:47:19;36.78;;;16.77;;
70683;SDS011;58263;48.146;11.440;2024-01-10T13:49:46;39.70;;;18.92;;
70683;SDS011;58263;48.146;11.440;2024-01-10T13:52:11;40.50;;;17.70;;
70683;SDS011;58263;48.146;11.440;2024-01-10T13:54:37;38.43;;;16.90;;
70683;SDS011;58263;48.146;11.440;2024-01-10T13:57:02;37.07;;;16.23;;
70683;SDS011;58263;48.146;11.440;2024-01-10T13:59:28;37.63;;;17.88;;
70683;SDS011;58263;48.146;11.440;2024-01-10T14:01:53;36.67;;;16.70;;
70683;SDS011;58263;48.146;11.440;2024-01-10T14:04:19;38.95;;;17.20;;
70683;SDS011;58263;48.146;11.440;2024-01-10T14:06:44;37.93;;;16.70;;
70683;SDS011;58263;48.146;11.440;2024-01-10T14:09:09;37.37;;;16.03;;
70683;SDS011;58263;48.146;11.440;2024-01-10T14:11:35;37.33;;;17.40;;
70683;SDS011;58263;48.146;11.440;2024-01-10T14:14:00;42.23;;;17.00;;
70683;SDS011;58263;48.146;11.440;2024-01-10T14:16:26;42.20;;;17.83;;
70683;SDS011;58263;48.146;11.440;2024-01-10T14:18:52;38.85;;;19.63;;
70683;SDS011;58263;48.146;11.440;2024-01-10T14:21:20;35.70;;;15.57;;
70683;SDS011;58263;48.146;11.440;2024-01-10T14:23:46;38.85;;;16.27;;
70683;SDS011;58263;48.146;11.440;2024-01-10T14:26:12;38.25;;;16.55;;
70683;SDS011;58263;48.146;11.440;2024-01-10T14:28:37;34.53;;;15.93;;